Kuwait City, Kuwait
Current Conditions -  °F | °C
As of 3:00 AM on Monday 24 Nov 2014 (Local Time) from OKBK Reporting Station
Clear Clear  
Wind Chill: 20°   Ceiling: Unl
Heat Index: 20°   Visibility: 6mi
Dew Point: 11°   Wind: 12mph
Humidity: 56%   Direction: 360°N
Pressure: 29.91"   Gusts: NA
Location:  29.22°N, 47.98°E
Report Text: OKBK 240000Z 36010KT CAVOK 20/11 Q1013 NOSIG
Loading
Personal Weather Stations






























Interactive Weather Map New forecast layout! Learn more

10-Day Weather Forecast

Advertisements
Track Severe Weather on mobile